Terminal Aerodrome Forecast
Issued by NWS

Home | Current Version | Previous Version | Text Only | Print | Product List | Glossary On
Versions: 1 2 3 4 5 6 7 8 9 10 11 12 13 14 15 16 17 18
000
FTUS41 KPBZ 260658 AAA
TAFZZV
TAF AMD
KZZV 260658Z 2607/2706 28006KT 4SM BR SKC
      TEMPO 2609/2612 1SM BR SCT010
     FM261300 VRB05KT P6SM SCT050
     FM262100 VRB03KT P6SM SKC=

USA.gov is the U.S. government's official web portal to all federal, state and local government web resources and services.